sensor_id;sensor_type;location;lat;lon;timestamp;pressure;altitude;pressure_sealevel;temperature;humidity
78485;BME280;67773;50.806;8.776;2023-05-07T00:01:47;99673.44;;;13.16;87.90
78485;BME280;67773;50.806;8.776;2023-05-07T00:04:12;99669.06;;;13.15;88.64
78485;BME280;67773;50.806;8.776;2023-05-07T00:06:38;99673.53;;;13.14;88.52
78485;BME280;67773;50.806;8.776;2023-05-07T00:09:05;99669.06;;;13.15;88.62
78485;BME280;67773;50.806;8.776;2023-05-07T00:11:30;99679.63;;;13.16;88.79
78485;BME280;67773;50.806;8.776;2023-05-07T00:13:56;99676.59;;;13.22;89.08
78485;BME280;67773;50.806;8.776;2023-05-07T00:16:21;99675.94;;;13.19;89.00
78485;BME280;67773;50.806;8.776;2023-05-07T00:18:47;99683.94;;;13.19;88.41
78485;BME280;67773;50.806;8.776;2023-05-07T00:21:12;99680.69;;;13.14;87.69
78485;BME280;67773;50.806;8.776;2023-05-07T00:23:37;99685.06;;;13.15;88.66
78485;BME280;67773;50.806;8.776;2023-05-07T00:26:03;99681.19;;;13.20;87.88
78485;BME280;67773;50.806;8.776;2023-05-07T00:28:29;99682.03;;;13.21;88.73
78485;BME280;67773;50.806;8.776;2023-05-07T00:30:54;99667.94;;;13.19;87.78
78485;BME280;67773;50.806;8.776;2023-05-07T00:33:19;99669.56;;;13.21;88.26
78485;BME280;67773;50.806;8.776;2023-05-07T00:35:46;99667.25;;;13.15;88.23
78485;BME280;67773;50.806;8.776;2023-05-07T00:38:12;99678.16;;;13.26;87.83
78485;BME280;67773;50.806;8.776;2023-05-07T00:40:37;99678.25;;;13.25;87.68
78485;BME280;67773;50.806;8.776;2023-05-07T00:43:02;99664.50;;;13.17;88.25
78485;BME280;67773;50.806;8.776;2023-05-07T00:45:28;99666.41;;;13.15;88.71
78485;BME280;67773;50.806;8.776;2023-05-07T00:47:55;99665.56;;;13.14;88.20
78485;BME280;67773;50.806;8.776;2023-05-07T00:50:22;99667.63;;;13.09;88.56
78485;BME280;67773;50.806;8.776;2023-05-07T00:52:47;99664.75;;;13.12;89.33
78485;BME280;67773;50.806;8.776;2023-05-07T00:55:13;99666.56;;;13.12;88.52
78485;BME280;67773;50.806;8.776;2023-05-07T00:57:40;99663.91;;;13.12;88.41
78485;BME280;67773;50.806;8.776;2023-05-07T01:00:08;99663.84;;;13.13;88.19
78485;BME280;67773;50.806;8.776;2023-05-07T01:02:35;99662.28;;;13.09;88.53
78485;BME280;67773;50.806;8.776;2023-05-07T01:05:01;99663.25;;;13.08;88.30
78485;BME280;67773;50.806;8.776;2023-05-07T01:07:28;99671.25;;;13.08;88.39
78485;BME280;67773;50.806;8.776;2023-05-07T01:09:54;99665.34;;;13.03;88.16
78485;BME280;67773;50.806;8.776;2023-05-07T01:12:20;99663.59;;;13.02;88.74
78485;BME280;67773;50.806;8.776;2023-05-07T01:14:46;99670.38;;;13.08;88.39
78485;BME280;67773;50.806;8.776;2023-05-07T01:17:11;99672.50;;;13.03;87.92
78485;BME280;67773;50.806;8.776;2023-05-07T01:19:36;99663.72;;;13.00;87.88
78485;BME280;67773;50.806;8.776;2023-05-07T01:22:07;99665.41;;;13.01;87.94
78485;BME280;67773;50.806;8.776;2023-05-07T01:24:33;99662.84;;;13.00;87.87
78485;BME280;67773;50.806;8.776;2023-05-07T01:26:59;99668.88;;;13.04;88.81
78485;BME280;67773;50.806;8.776;2023-05-07T01:29:26;99664.50;;;13.03;88.37
78485;BME280;67773;50.806;8.776;2023-05-07T01:31:52;99662.19;;;12.96;88.56
78485;BME280;67773;50.806;8.776;2023-05-07T01:34:19;99668.47;;;12.95;88.06
78485;BME280;67773;50.806;8.776;2023-05-07T01:36:46;99664.66;;;12.85;88.16
78485;BME280;67773;50.806;8.776;2023-05-07T01:39:13;99653.81;;;12.88;88.08
78485;BME280;67773;50.806;8.776;2023-05-07T01:41:39;99672.25;;;12.91;87.27
78485;BME280;67773;50.806;8.776;2023-05-07T01:44:05;99671.59;;;12.88;87.68
78485;BME280;67773;50.806;8.776;2023-05-07T01:46:31;99663.03;;;12.83;88.06
78485;BME280;67773;50.806;8.776;2023-05-07T01:48:58;99671.88;;;12.83;88.57
78485;BME280;67773;50.806;8.776;2023-05-07T01:51:24;99670.34;;;12.79;88.23
78485;BME280;67773;50.806;8.776;2023-05-07T01:53:52;99676.41;;;12.81;88.32
78485;BME280;67773;50.806;8.776;2023-05-07T01:56:18;99664.25;;;12.77;88.43
78485;BME280;67773;50.806;8.776;2023-05-07T01:58:47;99675.66;;;12.79;88.83
78485;BME280;67773;50.806;8.776;2023-05-07T02:01:13;99665.19;;;12.76;88.73
78485;BME280;67773;50.806;8.776;2023-05-07T02:03:39;99664.16;;;12.79;88.02
78485;BME280;67773;50.806;8.776;2023-05-07T02:06:05;99661.41;;;12.80;88.63
78485;BME280;67773;50.806;8.776;2023-05-07T02:08:30;99661.50;;;12.79;89.06
78485;BME280;67773;50.806;8.776;2023-05-07T02:10:56;99657.50;;;12.71;88.62
78485;BME280;67773;50.806;8.776;2023-05-07T02:13:21;99659.03;;;12.76;88.57
78485;BME280;67773;50.806;8.776;2023-05-07T02:15:47;99658.16;;;12.75;89.13
78485;BME280;67773;50.806;8.776;2023-05-07T02:18:16;99661.78;;;12.74;88.09
78485;BME280;67773;50.806;8.776;2023-05-07T02:20:42;99653.38;;;12.66;87.67
78485;BME280;67773;50.806;8.776;2023-05-07T02:23:07;99652.34;;;12.68;87.96
78485;BME280;67773;50.806;8.776;2023-05-07T02:25:33;99658.94;;;12.77;88.13
78485;BME280;67773;50.806;8.776;2023-05-07T02:27:58;99660.81;;;12.75;88.39
78485;BME280;67773;50.806;8.776;2023-05-07T02:30:25;99658.94;;;12.77;88.72
78485;BME280;67773;50.806;8.776;2023-05-07T02:32:50;99654.66;;;12.75;88.41
78485;BME280;67773;50.806;8.776;2023-05-07T02:35:16;99658.94;;;12.77;87.79
78485;BME280;67773;50.806;8.776;2023-05-07T02:37:41;99658.16;;;12.75;87.93
78485;BME280;67773;50.806;8.776;2023-05-07T02:40:07;99659.97;;;12.75;88.72
78485;BME280;67773;50.806;8.776;2023-05-07T02:42:32;99667.28;;;12.71;88.52
78485;BME280;67773;50.806;8.776;2023-05-07T02:44:58;99667.09;;;12.74;88.92
78485;BME280;67773;50.806;8.776;2023-05-07T02:47:24;99666.34;;;12.72;88.52
78485;BME280;67773;50.806;8.776;2023-05-07T02:49:52;99666.50;;;12.69;88.68
78485;BME280;67773;50.806;8.776;2023-05-07T02:52:17;99667.28;;;12.71;89.36
78485;BME280;67773;50.806;8.776;2023-05-07T02:54:43;99671.75;;;12.70;88.29
78485;BME280;67773;50.806;8.776;2023-05-07T02:57:08;99672.78;;;12.68;88.67
78485;BME280;67773;50.806;8.776;2023-05-07T02:59:34;99671.16;;;12.65;88.97
78485;BME280;67773;50.806;8.776;2023-05-07T03:02:00;99670.22;;;12.66;88.96
78485;BME280;67773;50.806;8.776;2023-05-07T03:04:26;99672.13;;;12.64;88.91
78485;BME280;67773;50.806;8.776;2023-05-07T03:06:51;99667.84;;;12.62;88.47
78485;BME280;67773;50.806;8.776;2023-05-07T03:09:16;99680.38;;;12.60;88.61
78485;BME280;67773;50.806;8.776;2023-05-07T03:11:43;99682.19;;;12.59;88.48
78485;BME280;67773;50.806;8.776;2023-05-07T03:14:08;99680.31;;;12.61;88.55
78485;BME280;67773;50.806;8.776;2023-05-07T03:16:34;99671.44;;;12.61;88.28
78485;BME280;67773;50.806;8.776;2023-05-07T03:18:59;99674.50;;;12.69;88.13
78485;BME280;67773;50.806;8.776;2023-05-07T03:21:25;99666.69;;;12.66;87.92
78485;BME280;67773;50.806;8.776;2023-05-07T03:23:51;99657.44;;;12.57;88.24
78485;BME280;67773;50.806;8.776;2023-05-07T03:26:16;99669.16;;;12.55;88.24
78485;BME280;67773;50.806;8.776;2023-05-07T03:28:42;99662.78;;;12.57;88.13
78485;BME280;67773;50.806;8.776;2023-05-07T03:31:07;99666.91;;;12.63;88.16
78485;BME280;67773;50.806;8.776;2023-05-07T03:33:33;99660.56;;;12.50;88.93
78485;BME280;67773;50.806;8.776;2023-05-07T03:36:00;99662.75;;;12.43;89.18
78485;BME280;67773;50.806;8.776;2023-05-07T03:38:26;99672.69;;;12.39;88.92
78485;BME280;67773;50.806;8.776;2023-05-07T03:40:51;99668.22;;;12.40;89.83
78485;BME280;67773;50.806;8.776;2023-05-07T03:43:16;99664.91;;;12.36;89.03
78485;BME280;67773;50.806;8.776;2023-05-07T03:45:42;99671.16;;;12.35;89.17
78485;BME280;67773;50.806;8.776;2023-05-07T03:48:07;99675.63;;;12.35;89.08
78485;BME280;67773;50.806;8.776;2023-05-07T03:50:32;99677.44;;;12.34;88.98
78485;BME280;67773;50.806;8.776;2023-05-07T03:52:58;99673.06;;;12.33;88.53
78485;BME280;67773;50.806;8.776;2023-05-07T03:55:23;99672.47;;;12.28;89.65
78485;BME280;67773;50.806;8.776;2023-05-07T03:57:49;99672.56;;;12.27;89.60
78485;BME280;67773;50.806;8.776;2023-05-07T04:00:14;99677.72;;;12.30;90.04
78485;BME280;67773;50.806;8.776;2023-05-07T04:02:40;99682.09;;;12.31;89.71
78485;BME280;67773;50.806;8.776;2023-05-07T04:05:06;99677.72;;;12.30;90.20
78485;BME280;67773;50.806;8.776;2023-05-07T04:07:31;99682.34;;;12.26;89.04
78485;BME280;67773;50.806;8.776;2023-05-07T04:09:56;99680.09;;;12.34;89.24
78485;BME280;67773;50.806;8.776;2023-05-07T04:12:22;99681.81;;;12.35;88.69
78485;BME280;67773;50.806;8.776;2023-05-07T04:14:47;99681.91;;;12.34;89.25
78485;BME280;67773;50.806;8.776;2023-05-07T04:17:12;99679.50;;;12.29;88.95
78485;BME280;67773;50.806;8.776;2023-05-07T04:19:38;99684.81;;;12.29;88.82
78485;BME280;67773;50.806;8.776;2023-05-07T04:22:04;99682.66;;;12.36;88.99
78485;BME280;67773;50.806;8.776;2023-05-07T04:24:32;99692.47;;;12.35;88.73
78485;BME280;67773;50.806;8.776;2023-05-07T04:26:58;99696.50;;;12.42;88.61
78485;BME280;67773;50.806;8.776;2023-05-07T04:29:23;99697.59;;;12.54;88.08
78485;BME280;67773;50.806;8.776;2023-05-07T04:31:49;99689.84;;;12.50;87.50
78485;BME280;67773;50.806;8.776;2023-05-07T04:34:14;99694.81;;;12.56;88.60
78485;BME280;67773;50.806;8.776;2023-05-07T04:36:40;99701.94;;;12.55;87.61
78485;BME280;67773;50.806;8.776;2023-05-07T04:39:05;99689.78;;;12.51;86.96
78485;BME280;67773;50.806;8.776;2023-05-07T04:41:31;99695.97;;;12.52;87.34
78485;BME280;67773;50.806;8.776;2023-05-07T04:43:57;99693.47;;;12.49;86.51
78485;BME280;67773;50.806;8.776;2023-05-07T04:46:24;99701.09;;;12.55;87.43
78485;BME280;67773;50.806;8.776;2023-05-07T04:48:50;99703.66;;;12.56;86.91
78485;BME280;67773;50.806;8.776;2023-05-07T04:51:15;99711.56;;;12.58;87.93
78485;BME280;67773;50.806;8.776;2023-05-07T04:53:41;99709.94;;;12.55;87.83
78485;BME280;67773;50.806;8.776;2023-05-07T04:56:06;99708.91;;;12.58;87.30
78485;BME280;67773;50.806;8.776;2023-05-07T04:58:31;99701.66;;;12.60;87.54
78485;BME280;67773;50.806;8.776;2023-05-07T05:00:58;99719.00;;;12.67;86.73
78485;BME280;67773;50.806;8.776;2023-05-07T05:03:23;99714.13;;;12.59;86.22
78485;BME280;67773;50.806;8.776;2023-05-07T05:05:49;99713.28;;;12.59;85.44
78485;BME280;67773;50.806;8.776;2023-05-07T05:08:14;99721.25;;;12.59;85.39
78485;BME280;67773;50.806;8.776;2023-05-07T05:10:40;99722.81;;;12.63;86.41
78485;BME280;67773;50.806;8.776;2023-05-07T05:13:06;99704.56;;;12.71;85.54
78485;BME280;67773;50.806;8.776;2023-05-07T05:15:33;99708.69;;;12.77;85.00
78485;BME280;67773;50.806;8.776;2023-05-07T05:17:58;99724.47;;;12.80;85.42
78485;BME280;67773;50.806;8.776;2023-05-07T05:20:23;99727.03;;;12.81;84.37
78485;BME280;67773;50.806;8.776;2023-05-07T05:22:49;99728.59;;;12.85;84.77
78485;BME280;67773;50.806;8.776;2023-05-07T05:25:16;99731.47;;;12.96;85.07
78485;BME280;67773;50.806;8.776;2023-05-07T05:27:41;99733.94;;;12.99;84.10
78485;BME280;67773;50.806;8.776;2023-05-07T05:30:08;99732.25;;;13.13;83.46
78485;BME280;67773;50.806;8.776;2023-05-07T05:32:33;99742.75;;;13.16;83.94
78485;BME280;67773;50.806;8.776;2023-05-07T05:34:59;99731.31;;;13.14;82.57
78485;BME280;67773;50.806;8.776;2023-05-07T05:37:25;99745.31;;;13.17;83.02
78485;BME280;67773;50.806;8.776;2023-05-07T05:39:50;99755.66;;;13.23;82.70
78485;BME280;67773;50.806;8.776;2023-05-07T05:42:16;99742.97;;;13.27;83.74
78485;BME280;67773;50.806;8.776;2023-05-07T05:44:41;99749.06;;;13.29;83.99
78485;BME280;67773;50.806;8.776;2023-05-07T05:47:06;99727.44;;;13.19;83.35
78485;BME280;67773;50.806;8.776;2023-05-07T05:49:32;99751.94;;;13.40;82.94
78485;BME280;67773;50.806;8.776;2023-05-07T05:51:57;99751.38;;;13.35;82.89
78485;BME280;67773;50.806;8.776;2023-05-07T05:54:23;99750.22;;;13.39;82.52
78485;BME280;67773;50.806;8.776;2023-05-07T05:56:48;99762.78;;;13.37;81.42
78485;BME280;67773;50.806;8.776;2023-05-07T05:59:14;99761.94;;;13.37;81.42
78485;BME280;67773;50.806;8.776;2023-05-07T06:01:40;99757.47;;;13.37;81.83
78485;BME280;67773;50.806;8.776;2023-05-07T06:04:05;99757.75;;;13.47;81.31
78485;BME280;67773;50.806;8.776;2023-05-07T06:06:30;99763.94;;;13.47;81.96
78485;BME280;67773;50.806;8.776;2023-05-07T06:08:56;99759.47;;;13.48;82.33
78485;BME280;67773;50.806;8.776;2023-05-07T06:11:22;99751.00;;;13.55;81.09
78485;BME280;67773;50.806;8.776;2023-05-07T06:13:47;99751.94;;;13.54;81.43
78485;BME280;67773;50.806;8.776;2023-05-07T06:16:14;99754.03;;;13.64;81.32
78485;BME280;67773;50.806;8.776;2023-05-07T06:18:40;99744.50;;;13.60;80.68
78485;BME280;67773;50.806;8.776;2023-05-07T06:21:05;99752.31;;;13.63;79.80
78485;BME280;67773;50.806;8.776;2023-05-07T06:23:31;99751.34;;;13.92;78.71
78485;BME280;67773;50.806;8.776;2023-05-07T06:25:56;99757.72;;;14.04;78.68
78485;BME280;67773;50.806;8.776;2023-05-07T06:28:22;99748.09;;;14.01;78.54
78485;BME280;67773;50.806;8.776;2023-05-07T06:30:47;99750.19;;;14.10;80.41
78485;BME280;67773;50.806;8.776;2023-05-07T06:33:15;99756.84;;;14.03;79.22
78485;BME280;67773;50.806;8.776;2023-05-07T06:35:40;99763.53;;;14.10;78.59
78485;BME280;67773;50.806;8.776;2023-05-07T06:38:05;99766.09;;;14.12;78.31
78485;BME280;67773;50.806;8.776;2023-05-07T06:40:31;99769.88;;;14.22;77.46
78485;BME280;67773;50.806;8.776;2023-05-07T06:42:56;99776.84;;;14.25;77.76
78485;BME280;67773;50.806;8.776;2023-05-07T06:45:21;99756.38;;;14.38;78.04
78485;BME280;67773;50.806;8.776;2023-05-07T06:47:47;99763.44;;;14.80;74.68
78485;BME280;67773;50.806;8.776;2023-05-07T06:50:12;99756.19;;;14.82;75.61
78485;BME280;67773;50.806;8.776;2023-05-07T06:52:38;99763.81;;;15.01;74.61
78485;BME280;67773;50.806;8.776;2023-05-07T06:55:04;99755.34;;;15.07;72.27
78485;BME280;67773;50.806;8.776;2023-05-07T06:57:29;99771.31;;;15.21;73.57
78485;BME280;67773;50.806;8.776;2023-05-07T06:59:54;99764.44;;;15.05;72.80
78485;BME280;67773;50.806;8.776;2023-05-07T07:02:20;99760.94;;;15.04;72.08
78485;BME280;67773;50.806;8.776;2023-05-07T07:04:45;99773.13;;;15.21;71.54
78485;BME280;67773;50.806;8.776;2023-05-07T07:07:11;99772.09;;;15.23;72.57
78485;BME280;67773;50.806;8.776;2023-05-07T07:09:36;99761.81;;;15.30;73.45
78485;BME280;67773;50.806;8.776;2023-05-07T07:12:01;99763.41;;;15.58;69.74
78485;BME280;67773;50.806;8.776;2023-05-07T07:14:27;99770.59;;;15.57;70.47
78485;BME280;67773;50.806;8.776;2023-05-07T07:16:52;99775.75;;;15.73;70.59
78485;BME280;67773;50.806;8.776;2023-05-07T07:19:18;99775.31;;;16.05;68.34
78485;BME280;67773;50.806;8.776;2023-05-07T07:21:45;99775.16;;;16.19;67.23
78485;BME280;67773;50.806;8.776;2023-05-07T07:24:10;99770.34;;;16.11;67.76
78485;BME280;67773;50.806;8.776;2023-05-07T07:26:35;99777.53;;;15.98;68.52
78485;BME280;67773;50.806;8.776;2023-05-07T07:29:01;99790.66;;;16.14;68.95
78485;BME280;67773;50.806;8.776;2023-05-07T07:31:26;99783.81;;;16.23;66.78
78485;BME280;67773;50.806;8.776;2023-05-07T07:33:52;99768.94;;;16.19;66.49
78485;BME280;67773;50.806;8.776;2023-05-07T07:36:18;99781.78;;;16.13;67.28
78485;BME280;67773;50.806;8.776;2023-05-07T07:38:45;99781.06;;;15.99;68.62
78485;BME280;67773;50.806;8.776;2023-05-07T07:41:10;99782.28;;;15.95;70.69
78485;BME280;67773;50.806;8.776;2023-05-07T07:43:35;99777.19;;;16.03;70.03
78485;BME280;67773;50.806;8.776;2023-05-07T07:46:01;99766.88;;;16.22;68.50
78485;BME280;67773;50.806;8.776;2023-05-07T07:48:26;99768.53;;;16.36;67.94
78485;BME280;67773;50.806;8.776;2023-05-07T07:50:52;99773.47;;;16.42;68.32
78485;BME280;67773;50.806;8.776;2023-05-07T07:53:17;99776.09;;;16.55;67.04
78485;BME280;67773;50.806;8.776;2023-05-07T07:55:43;99774.63;;;16.74;66.43
78485;BME280;67773;50.806;8.776;2023-05-07T07:58:09;99792.59;;;17.09;63.94
78485;BME280;67773;50.806;8.776;2023-05-07T08:00:34;99788.00;;;16.98;65.66
78485;BME280;67773;50.806;8.776;2023-05-07T08:03:01;99784.84;;;16.93;66.08
78485;BME280;67773;50.806;8.776;2023-05-07T08:05:28;99771.31;;;16.95;64.66
78485;BME280;67773;50.806;8.776;2023-05-07T08:07:54;99782.25;;;17.27;65.11
78485;BME280;67773;50.806;8.776;2023-05-07T08:10:19;99788.03;;;17.34;65.95
78485;BME280;67773;50.806;8.776;2023-05-07T08:12:51;99793.81;;;17.63;64.20
78485;BME280;67773;50.806;8.776;2023-05-07T08:15:16;99786.41;;;17.88;62.16
78485;BME280;67773;50.806;8.776;2023-05-07T08:17:42;99791.41;;;17.71;64.91
78485;BME280;67773;50.806;8.776;2023-05-07T08:20:09;99787.59;;;17.51;64.34
78485;BME280;67773;50.806;8.776;2023-05-07T08:22:37;99794.72;;;17.39;64.52
78485;BME280;67773;50.806;8.776;2023-05-07T08:25:03;99795.19;;;17.22;64.24
78485;BME280;67773;50.806;8.776;2023-05-07T08:27:28;99781.81;;;17.33;63.87
78485;BME280;67773;50.806;8.776;2023-05-07T08:29:54;99802.59;;;17.65;64.91
78485;BME280;67773;50.806;8.776;2023-05-07T08:32:20;99800.88;;;17.52;64.11
78485;BME280;67773;50.806;8.776;2023-05-07T08:34:47;99798.19;;;17.52;64.80
78485;BME280;67773;50.806;8.776;2023-05-07T08:37:13;99804.06;;;17.57;63.86
78485;BME280;67773;50.806;8.776;2023-05-07T08:39:38;99802.91;;;17.84;63.42
78485;BME280;67773;50.806;8.776;2023-05-07T08:42:04;99801.44;;;18.13;60.76
78485;BME280;67773;50.806;8.776;2023-05-07T08:44:34;99803.69;;;18.63;59.46
78485;BME280;67773;50.806;8.776;2023-05-07T08:47:01;99808.28;;;18.83;60.38
78485;BME280;67773;50.806;8.776;2023-05-07T08:49:28;99803.94;;;19.03;58.46
78485;BME280;67773;50.806;8.776;2023-05-07T08:51:54;99797.81;;;19.54;58.23
78485;BME280;67773;50.806;8.776;2023-05-07T08:54:21;99800.56;;;19.84;54.64
78485;BME280;67773;50.806;8.776;2023-05-07T08:56:46;99798.78;;;19.95;55.96
78485;BME280;67773;50.806;8.776;2023-05-07T08:59:13;99793.56;;;19.72;57.22
78485;BME280;67773;50.806;8.776;2023-05-07T09:01:38;99789.97;;;19.93;56.23
78485;BME280;67773;50.806;8.776;2023-05-07T09:04:04;99796.78;;;19.97;55.52
78485;BME280;67773;50.806;8.776;2023-05-07T09:06:30;99789.31;;;19.79;56.04
78485;BME280;67773;50.806;8.776;2023-05-07T09:08:56;99789.00;;;19.94;54.78
78485;BME280;67773;50.806;8.776;2023-05-07T09:11:24;99784.88;;;19.99;53.50
78485;BME280;67773;50.806;8.776;2023-05-07T09:13:56;99787.75;;;19.35;56.02
78485;BME280;67773;50.806;8.776;2023-05-07T09:16:23;99782.78;;;19.51;55.73
78485;BME280;67773;50.806;8.776;2023-05-07T09:18:53;99788.09;;;19.42;55.73
78485;BME280;67773;50.806;8.776;2023-05-07T09:21:20;99786.97;;;19.86;55.70
78485;BME280;67773;50.806;8.776;2023-05-07T09:23:51;99778.00;;;20.56;53.87
78485;BME280;67773;50.806;8.776;2023-05-07T09:26:18;99776.47;;;21.50;50.64
78485;BME280;67773;50.806;8.776;2023-05-07T09:28:43;99782.41;;;22.65;47.80
78485;BME280;67773;50.806;8.776;2023-05-07T09:31:10;99779.81;;;22.18;47.33
78485;BME280;67773;50.806;8.776;2023-05-07T09:33:36;99781.84;;;21.60;48.40
78485;BME280;67773;50.806;8.776;2023-05-07T09:36:07;99771.63;;;21.44;50.04
78485;BME280;67773;50.806;8.776;2023-05-07T09:38:33;99774.44;;;21.62;51.23
78485;BME280;67773;50.806;8.776;2023-05-07T09:41:07;99779.31;;;21.58;51.00
78485;BME280;67773;50.806;8.776;2023-05-07T09:43:34;99772.50;;;21.35;52.42
78485;BME280;67773;50.806;8.776;2023-05-07T09:46:03;99772.78;;;21.13;54.39
78485;BME280;67773;50.806;8.776;2023-05-07T09:48:29;99767.25;;;21.33;51.29
78485;BME280;67773;50.806;8.776;2023-05-07T09:50:55;99771.63;;;21.44;50.71
78485;BME280;67773;50.806;8.776;2023-05-07T09:53:25;99765.91;;;21.57;49.56
78485;BME280;67773;50.806;8.776;2023-05-07T09:55:51;99769.09;;;20.75;53.84
78485;BME280;67773;50.806;8.776;2023-05-07T09:58:18;99776.09;;;20.37;52.79
78485;BME280;67773;50.806;8.776;2023-05-07T10:00:44;99777.03;;;19.86;55.57
78485;BME280;67773;50.806;8.776;2023-05-07T10:03:11;99771.47;;;19.78;54.81
78485;BME280;67773;50.806;8.776;2023-05-07T10:05:38;99775.88;;;19.38;56.34
78485;BME280;67773;50.806;8.776;2023-05-07T10:08:04;99773.13;;;19.49;57.12
78485;BME280;67773;50.806;8.776;2023-05-07T10:10:32;99758.28;;;19.75;55.36
78485;BME280;67773;50.806;8.776;2023-05-07T10:12:58;99757.72;;;21.00;55.09
78485;BME280;67773;50.806;8.776;2023-05-07T10:15:24;99752.16;;;22.52;48.47
78485;BME280;67773;50.806;8.776;2023-05-07T10:17:51;99760.63;;;23.20;46.07
78485;BME280;67773;50.806;8.776;2023-05-07T10:20:18;99763.84;;;23.24;45.77
78485;BME280;67773;50.806;8.776;2023-05-07T10:22:46;99760.78;;;22.83;50.13
78485;BME280;67773;50.806;8.776;2023-05-07T10:25:23;99762.97;;;23.59;44.74
78485;BME280;67773;50.806;8.776;2023-05-07T10:27:51;99760.50;;;23.48;45.44
78485;BME280;67773;50.806;8.776;2023-05-07T10:30:33;99750.22;;;23.77;44.95
78485;BME280;67773;50.806;8.776;2023-05-07T10:33:05;99752.41;;;26.98;41.43
78485;BME280;67773;50.806;8.776;2023-05-07T10:35:38;99745.03;;;28.92;34.53
78485;BME280;67773;50.806;8.776;2023-05-07T10:38:04;99746.44;;;28.88;35.29
78485;BME280;67773;50.806;8.776;2023-05-07T10:40:32;99756.38;;;29.17;35.49
78485;BME280;67773;50.806;8.776;2023-05-07T10:43:00;99745.47;;;30.01;31.54
78485;BME280;67773;50.806;8.776;2023-05-07T10:45:27;99754.88;;;29.36;32.76
78485;BME280;67773;50.806;8.776;2023-05-07T10:48:13;99749.75;;;31.32;29.02
78485;BME280;67773;50.806;8.776;2023-05-07T10:50:40;99743.50;;;32.36;27.76
78485;BME280;67773;50.806;8.776;2023-05-07T10:55:49;99743.22;;;33.95;26.17
78485;BME280;67773;50.806;8.776;2023-05-07T11:00:49;99736.84;;;32.57;27.01
78485;BME280;67773;50.806;8.776;2023-05-07T11:03:14;99740.63;;;31.98;28.09
78485;BME280;67773;50.806;8.776;2023-05-07T11:05:41;99745.44;;;30.29;29.85
78485;BME280;67773;50.806;8.776;2023-05-07T11:08:07;99743.03;;;30.60;30.66
78485;BME280;67773;50.806;8.776;2023-05-07T11:13:18;99722.59;;;34.41;24.65
78485;BME280;67773;50.806;8.776;2023-05-07T11:15:50;99726.75;;;33.14;25.90
78485;BME280;67773;50.806;8.776;2023-05-07T11:18:17;99737.72;;;30.04;32.64
78485;BME280;67773;50.806;8.776;2023-05-07T11:20:56;99740.94;;;27.86;33.71
78485;BME280;67773;50.806;8.776;2023-05-07T11:26:02;99742.19;;;25.02;39.63
78485;BME280;67773;50.806;8.776;2023-05-07T11:28:28;99753.50;;;25.71;39.19
78485;BME280;67773;50.806;8.776;2023-05-07T11:30:56;99732.81;;;28.73;34.39
78485;BME280;67773;50.806;8.776;2023-05-07T11:33:22;99729.97;;;29.73;33.70
78485;BME280;67773;50.806;8.776;2023-05-07T11:35:47;99741.00;;;27.93;33.18
78485;BME280;67773;50.806;8.776;2023-05-07T11:38:13;99745.00;;;26.38;36.25
78485;BME280;67773;50.806;8.776;2023-05-07T11:40:52;99746.16;;;25.96;38.22
78485;BME280;67773;50.806;8.776;2023-05-07T11:43:18;99738.75;;;26.13;37.85
78485;BME280;67773;50.806;8.776;2023-05-07T11:45:45;99739.34;;;25.92;37.20
78485;BME280;67773;50.806;8.776;2023-05-07T11:48:12;99746.53;;;25.69;39.17
78485;BME280;67773;50.806;8.776;2023-05-07T11:51:07;99738.31;;;26.71;37.16
78485;BME280;67773;50.806;8.776;2023-05-07T11:53:41;99731.56;;;27.13;35.77
78485;BME280;67773;50.806;8.776;2023-05-07T11:56:11;99724.56;;;28.88;33.29
78485;BME280;67773;50.806;8.776;2023-05-07T11:58:39;99725.94;;;28.26;34.92
78485;BME280;67773;50.806;8.776;2023-05-07T12:01:07;99719.31;;;27.61;33.94
78485;BME280;67773;50.806;8.776;2023-05-07T12:03:33;99714.31;;;27.21;35.47
78485;BME280;67773;50.806;8.776;2023-05-07T12:05:59;99716.72;;;26.93;35.79
78485;BME280;67773;50.806;8.776;2023-05-07T12:08:25;99718.78;;;26.68;37.32
78485;BME280;67773;50.806;8.776;2023-05-07T12:10:50;99697.97;;;29.80;32.72
78485;BME280;67773;50.806;8.776;2023-05-07T12:13:17;99703.72;;;29.85;33.17
78485;BME280;67773;50.806;8.776;2023-05-07T12:15:43;99714.44;;;28.45;34.63
78485;BME280;67773;50.806;8.776;2023-05-07T12:18:09;99704.06;;;28.56;35.00
78485;BME280;67773;50.806;8.776;2023-05-07T12:20:36;99711.38;;;28.04;35.20
78485;BME280;67773;50.806;8.776;2023-05-07T12:23:02;99710.75;;;27.73;35.15
78485;BME280;67773;50.806;8.776;2023-05-07T12:25:30;99709.38;;;27.16;36.26
78485;BME280;67773;50.806;8.776;2023-05-07T12:27:56;99702.69;;;28.66;33.21
78485;BME280;67773;50.806;8.776;2023-05-07T12:30:24;99704.47;;;28.38;35.96
78485;BME280;67773;50.806;8.776;2023-05-07T12:32:53;99703.81;;;30.05;32.02
78485;BME280;67773;50.806;8.776;2023-05-07T12:35:26;99699.03;;;30.68;29.53
78485;BME280;67773;50.806;8.776;2023-05-07T12:37:59;99698.84;;;32.79;27.55
78485;BME280;67773;50.806;8.776;2023-05-07T12:40:38;99699.06;;;34.38;24.93
78485;BME280;67773;50.806;8.776;2023-05-07T12:43:15;99697.59;;;34.17;26.54
78485;BME280;67773;50.806;8.776;2023-05-07T12:45:42;99692.25;;;34.23;24.37
78485;BME280;67773;50.806;8.776;2023-05-07T12:48:09;99679.56;;;35.23;24.41
78485;BME280;67773;50.806;8.776;2023-05-07T12:50:35;99688.69;;;35.12;25.31
78485;BME280;67773;50.806;8.776;2023-05-07T12:53:05;99687.59;;;35.37;23.62
78485;BME280;67773;50.806;8.776;2023-05-07T12:55:32;99674.25;;;35.22;24.24
78485;BME280;67773;50.806;8.776;2023-05-07T12:58:00;99675.16;;;36.90;21.97
78485;BME280;67773;50.806;8.776;2023-05-07T13:00:36;99677.91;;;35.69;23.76
78485;BME280;67773;50.806;8.776;2023-05-07T13:03:02;99674.19;;;35.52;23.73
78485;BME280;67773;50.806;8.776;2023-05-07T13:05:27;99667.25;;;36.13;21.90
78485;BME280;67773;50.806;8.776;2023-05-07T13:07:54;99674.03;;;36.34;21.26